sensor_id;sensor_type;location;lat;lon;timestamp;P1;durP1;ratioP1;P2;durP2;ratioP2
17436;SDS011;70275;52.198;5.422;2023-06-22T00:01:24;10.75;;;9.68;;
17436;SDS011;70275;52.198;5.422;2023-06-22T00:03:53;12.88;;;10.32;;
17436;SDS011;70275;52.198;5.422;2023-06-22T00:06:22;10.60;;;9.50;;
17436;SDS011;70275;52.198;5.422;2023-06-22T00:08:51;12.35;;;11.05;;
17436;SDS011;70275;52.198;5.422;2023-06-22T00:11:20;11.35;;;10.25;;
17436;SDS011;70275;52.198;5.422;2023-06-22T00:13:49;12.10;;;10.98;;
17436;SDS011;70275;52.198;5.422;2023-06-22T00:16:20;11.88;;;10.57;;
17436;SDS011;70275;52.198;5.422;2023-06-22T00:18:49;12.27;;;10.98;;
17436;SDS011;70275;52.198;5.422;2023-06-22T00:21:18;11.75;;;10.55;;
17436;SDS011;70275;52.198;5.422;2023-06-22T00:23:47;12.80;;;10.60;;
17436;SDS011;70275;52.198;5.422;2023-06-22T00:26:17;15.02;;;11.57;;
17436;SDS011;70275;52.198;5.422;2023-06-22T00:28:46;13.65;;;12.23;;
17436;SDS011;70275;52.198;5.422;2023-06-22T00:31:15;14.80;;;12.95;;
17436;SDS011;70275;52.198;5.422;2023-06-22T00:33:46;15.02;;;12.48;;
17436;SDS011;70275;52.198;5.422;2023-06-22T00:36:16;13.13;;;11.77;;
17436;SDS011;70275;52.198;5.422;2023-06-22T00:38:45;15.43;;;13.70;;
17436;SDS011;70275;52.198;5.422;2023-06-22T00:41:15;13.27;;;11.98;;
17436;SDS011;70275;52.198;5.422;2023-06-22T00:43:44;13.25;;;11.82;;
17436;SDS011;70275;52.198;5.422;2023-06-22T00:46:13;14.05;;;12.65;;
17436;SDS011;70275;52.198;5.422;2023-06-22T00:48:43;14.43;;;12.93;;
17436;SDS011;70275;52.198;5.422;2023-06-22T00:51:15;14.85;;;13.18;;
17436;SDS011;70275;52.198;5.422;2023-06-22T00:53:49;15.75;;;13.45;;
17436;SDS011;70275;52.198;5.422;2023-06-22T00:56:19;14.98;;;13.55;;
17436;SDS011;70275;52.198;5.422;2023-06-22T00:58:50;14.23;;;12.82;;
17436;SDS011;70275;52.198;5.422;2023-06-22T01:01:22;17.67;;;15.93;;
17436;SDS011;70275;52.198;5.422;2023-06-22T01:03:54;16.55;;;14.90;;
17436;SDS011;70275;52.198;5.422;2023-06-22T01:06:26;20.45;;;17.33;;
17436;SDS011;70275;52.198;5.422;2023-06-22T01:09:06;19.27;;;17.45;;
17436;SDS011;70275;52.198;5.422;2023-06-22T01:11:45;22.85;;;20.55;;
17436;SDS011;70275;52.198;5.422;2023-06-22T01:14:20;23.63;;;21.25;;
17436;SDS011;70275;52.198;5.422;2023-06-22T01:16:56;24.83;;;22.13;;
17436;SDS011;70275;52.198;5.422;2023-06-22T01:19:34;22.33;;;20.08;;
17436;SDS011;70275;52.198;5.422;2023-06-22T01:22:07;23.10;;;20.58;;
17436;SDS011;70275;52.198;5.422;2023-06-22T01:24:41;22.85;;;20.67;;
17436;SDS011;70275;52.198;5.422;2023-06-22T01:27:36;22.55;;;20.40;;
17436;SDS011;70275;52.198;5.422;2023-06-22T01:30:20;21.85;;;19.60;;
17436;SDS011;70275;52.198;5.422;2023-06-22T01:32:53;24.05;;;21.55;;
17436;SDS011;70275;52.198;5.422;2023-06-22T01:35:27;21.50;;;19.20;;
17436;SDS011;70275;52.198;5.422;2023-06-22T01:37:57;20.38;;;18.25;;
17436;SDS011;70275;52.198;5.422;2023-06-22T01:40:27;23.55;;;21.15;;
17436;SDS011;70275;52.198;5.422;2023-06-22T01:42:59;21.95;;;19.77;;
17436;SDS011;70275;52.198;5.422;2023-06-22T01:45:32;22.73;;;19.80;;
17436;SDS011;70275;52.198;5.422;2023-06-22T01:48:01;24.17;;;21.63;;
17436;SDS011;70275;52.198;5.422;2023-06-22T01:50:31;23.33;;;20.85;;
17436;SDS011;70275;52.198;5.422;2023-06-22T01:53:01;24.77;;;22.10;;
17436;SDS011;70275;52.198;5.422;2023-06-22T01:55:31;25.92;;;23.23;;
17436;SDS011;70275;52.198;5.422;2023-06-22T01:58:00;23.67;;;21.17;;
17436;SDS011;70275;52.198;5.422;2023-06-22T02:00:33;26.65;;;23.85;;
17436;SDS011;70275;52.198;5.422;2023-06-22T02:03:08;23.33;;;20.80;;
17436;SDS011;70275;52.198;5.422;2023-06-22T02:05:44;29.33;;;24.23;;
17436;SDS011;70275;52.198;5.422;2023-06-22T02:08:21;23.92;;;21.40;;
17436;SDS011;70275;52.198;5.422;2023-06-22T02:11:09;26.52;;;23.70;;
17436;SDS011;70275;52.198;5.422;2023-06-22T02:13:41;23.23;;;20.80;;
17436;SDS011;70275;52.198;5.422;2023-06-22T02:16:15;25.95;;;23.23;;
17436;SDS011;70275;52.198;5.422;2023-06-22T02:18:46;27.02;;;24.23;;
17436;SDS011;70275;52.198;5.422;2023-06-22T02:21:16;27.92;;;24.33;;
17436;SDS011;70275;52.198;5.422;2023-06-22T02:23:45;25.05;;;22.35;;
17436;SDS011;70275;52.198;5.422;2023-06-22T02:26:15;28.48;;;25.50;;
17436;SDS011;70275;52.198;5.422;2023-06-22T02:28:45;29.95;;;26.92;;
17436;SDS011;70275;52.198;5.422;2023-06-22T02:31:17;28.35;;;25.33;;
17436;SDS011;70275;52.198;5.422;2023-06-22T02:33:47;27.30;;;24.50;;
17436;SDS011;70275;52.198;5.422;2023-06-22T02:36:16;23.25;;;20.77;;
17436;SDS011;70275;52.198;5.422;2023-06-22T02:38:47;30.05;;;24.83;;
17436;SDS011;70275;52.198;5.422;2023-06-22T02:41:16;27.25;;;24.38;;
17436;SDS011;70275;52.198;5.422;2023-06-22T02:43:45;28.42;;;25.48;;
17436;SDS011;70275;52.198;5.422;2023-06-22T02:46:17;27.30;;;23.90;;
17436;SDS011;70275;52.198;5.422;2023-06-22T02:48:46;30.08;;;26.70;;
17436;SDS011;70275;52.198;5.422;2023-06-22T02:51:15;25.52;;;22.65;;
17436;SDS011;70275;52.198;5.422;2023-06-22T02:53:44;26.88;;;23.85;;
17436;SDS011;70275;52.198;5.422;2023-06-22T02:56:13;26.63;;;23.65;;
17436;SDS011;70275;52.198;5.422;2023-06-22T02:58:42;27.15;;;23.83;;
17436;SDS011;70275;52.198;5.422;2023-06-22T03:01:11;25.90;;;23.10;;
17436;SDS011;70275;52.198;5.422;2023-06-22T03:03:43;25.05;;;22.27;;
17436;SDS011;70275;52.198;5.422;2023-06-22T03:06:12;24.92;;;22.33;;
17436;SDS011;70275;52.198;5.422;2023-06-22T03:08:41;26.83;;;23.52;;
17436;SDS011;70275;52.198;5.422;2023-06-22T03:11:10;25.73;;;22.92;;
17436;SDS011;70275;52.198;5.422;2023-06-22T03:13:39;24.77;;;21.92;;
17436;SDS011;70275;52.198;5.422;2023-06-22T03:16:08;26.10;;;23.25;;
17436;SDS011;70275;52.198;5.422;2023-06-22T03:18:38;23.88;;;21.45;;
17436;SDS011;70275;52.198;5.422;2023-06-22T03:21:09;27.20;;;23.17;;
17436;SDS011;70275;52.198;5.422;2023-06-22T03:23:40;23.77;;;21.27;;
17436;SDS011;70275;52.198;5.422;2023-06-22T03:26:09;26.73;;;23.92;;
17436;SDS011;70275;52.198;5.422;2023-06-22T03:28:38;27.02;;;23.27;;
17436;SDS011;70275;52.198;5.422;2023-06-22T03:31:07;28.33;;;24.42;;
17436;SDS011;70275;52.198;5.422;2023-06-22T03:33:36;26.85;;;23.83;;
17436;SDS011;70275;52.198;5.422;2023-06-22T03:36:05;25.55;;;22.45;;
17436;SDS011;70275;52.198;5.422;2023-06-22T03:38:37;26.40;;;23.55;;
17436;SDS011;70275;52.198;5.422;2023-06-22T03:41:06;27.30;;;24.40;;
17436;SDS011;70275;52.198;5.422;2023-06-22T03:43:35;25.48;;;22.80;;
17436;SDS011;70275;52.198;5.422;2023-06-22T03:46:04;27.70;;;24.80;;
17436;SDS011;70275;52.198;5.422;2023-06-22T03:48:33;26.85;;;24.05;;
17436;SDS011;70275;52.198;5.422;2023-06-22T03:51:02;27.27;;;24.42;;
17436;SDS011;70275;52.198;5.422;2023-06-22T03:53:34;26.52;;;23.58;;
17436;SDS011;70275;52.198;5.422;2023-06-22T03:56:03;27.80;;;24.73;;
17436;SDS011;70275;52.198;5.422;2023-06-22T03:58:32;26.05;;;23.27;;
17436;SDS011;70275;52.198;5.422;2023-06-22T04:01:02;25.30;;;22.25;;
17436;SDS011;70275;52.198;5.422;2023-06-22T04:03:31;32.47;;;27.08;;
17436;SDS011;70275;52.198;5.422;2023-06-22T04:06:00;31.38;;;27.88;;
17436;SDS011;70275;52.198;5.422;2023-06-22T04:08:29;33.63;;;28.17;;
17436;SDS011;70275;52.198;5.422;2023-06-22T04:11:01;26.90;;;24.10;;
17436;SDS011;70275;52.198;5.422;2023-06-22T04:13:30;29.42;;;25.38;;
17436;SDS011;70275;52.198;5.422;2023-06-22T04:15:59;25.30;;;22.58;;
17436;SDS011;70275;52.198;5.422;2023-06-22T04:18:29;27.95;;;24.02;;
17436;SDS011;70275;52.198;5.422;2023-06-22T04:20:58;29.27;;;25.75;;
17436;SDS011;70275;52.198;5.422;2023-06-22T04:23:27;34.50;;;27.80;;
17436;SDS011;70275;52.198;5.422;2023-06-22T04:25:56;33.65;;;29.80;;
17436;SDS011;70275;52.198;5.422;2023-06-22T04:28:29;32.63;;;29.08;;
17436;SDS011;70275;52.198;5.422;2023-06-22T04:31:00;34.25;;;29.38;;
17436;SDS011;70275;52.198;5.422;2023-06-22T04:33:30;36.88;;;31.33;;
17436;SDS011;70275;52.198;5.422;2023-06-22T04:36:00;37.65;;;32.40;;
17436;SDS011;70275;52.198;5.422;2023-06-22T04:38:29;33.90;;;29.38;;
17436;SDS011;70275;52.198;5.422;2023-06-22T04:40:58;38.05;;;33.97;;
17436;SDS011;70275;52.198;5.422;2023-06-22T04:43:31;36.47;;;31.58;;
17436;SDS011;70275;52.198;5.422;2023-06-22T04:46:02;35.28;;;30.10;;
17436;SDS011;70275;52.198;5.422;2023-06-22T04:48:31;40.60;;;34.90;;
17436;SDS011;70275;52.198;5.422;2023-06-22T04:51:01;40.83;;;32.88;;
17436;SDS011;70275;52.198;5.422;2023-06-22T04:53:31;40.47;;;35.22;;
17436;SDS011;70275;52.198;5.422;2023-06-22T04:56:00;40.00;;;34.08;;
17436;SDS011;70275;52.198;5.422;2023-06-22T04:58:33;45.38;;;36.75;;
17436;SDS011;70275;52.198;5.422;2023-06-22T05:01:02;41.92;;;36.65;;
17436;SDS011;70275;52.198;5.422;2023-06-22T05:03:31;46.08;;;39.20;;
17436;SDS011;70275;52.198;5.422;2023-06-22T05:06:01;48.28;;;40.22;;
17436;SDS011;70275;52.198;5.422;2023-06-22T05:08:31;45.65;;;38.92;;
17436;SDS011;70275;52.198;5.422;2023-06-22T05:11:00;45.88;;;39.05;;
17436;SDS011;70275;52.198;5.422;2023-06-22T05:13:29;44.28;;;39.20;;
17436;SDS011;70275;52.198;5.422;2023-06-22T05:16:00;46.22;;;39.08;;
17436;SDS011;70275;52.198;5.422;2023-06-22T05:18:31;48.13;;;41.45;;
17436;SDS011;70275;52.198;5.422;2023-06-22T05:21:00;46.58;;;40.42;;
17436;SDS011;70275;52.198;5.422;2023-06-22T05:23:29;58.83;;;48.17;;
17436;SDS011;70275;52.198;5.422;2023-06-22T05:25:58;52.05;;;42.20;;
17436;SDS011;70275;52.198;5.422;2023-06-22T05:28:27;53.92;;;46.17;;
17436;SDS011;70275;52.198;5.422;2023-06-22T05:30:59;53.60;;;46.70;;
17436;SDS011;70275;52.198;5.422;2023-06-22T05:33:29;56.97;;;48.42;;
17436;SDS011;70275;52.198;5.422;2023-06-22T05:35:58;52.17;;;46.10;;
17436;SDS011;70275;52.198;5.422;2023-06-22T05:38:27;59.40;;;50.33;;
17436;SDS011;70275;52.198;5.422;2023-06-22T05:40:56;50.40;;;44.40;;
17436;SDS011;70275;52.198;5.422;2023-06-22T05:43:25;59.33;;;52.00;;
17436;SDS011;70275;52.198;5.422;2023-06-22T05:45:54;57.42;;;48.80;;
17436;SDS011;70275;52.198;5.422;2023-06-22T05:48:26;55.13;;;47.42;;
17436;SDS011;70275;52.198;5.422;2023-06-22T05:50:55;46.45;;;41.45;;
17436;SDS011;70275;52.198;5.422;2023-06-22T05:53:24;49.97;;;44.75;;
17436;SDS011;70275;52.198;5.422;2023-06-22T05:55:53;56.17;;;48.38;;
17436;SDS011;70275;52.198;5.422;2023-06-22T05:58:22;46.65;;;41.67;;
17436;SDS011;70275;52.198;5.422;2023-06-22T06:00:51;50.53;;;42.05;;
17436;SDS011;70275;52.198;5.422;2023-06-22T06:03:20;45.20;;;40.63;;
17436;SDS011;70275;52.198;5.422;2023-06-22T06:05:52;47.20;;;42.10;;
17436;SDS011;70275;52.198;5.422;2023-06-22T06:08:21;42.35;;;37.97;;
17436;SDS011;70275;52.198;5.422;2023-06-22T06:10:50;39.17;;;33.35;;
17436;SDS011;70275;52.198;5.422;2023-06-22T06:13:20;45.88;;;41.05;;
17436;SDS011;70275;52.198;5.422;2023-06-22T06:15:49;44.45;;;38.25;;
17436;SDS011;70275;52.198;5.422;2023-06-22T06:18:20;40.63;;;36.40;;
17436;SDS011;70275;52.198;5.422;2023-06-22T06:20:51;41.83;;;37.33;;
17436;SDS011;70275;52.198;5.422;2023-06-22T06:23:21;37.72;;;33.85;;
17436;SDS011;70275;52.198;5.422;2023-06-22T06:25:50;40.65;;;36.65;;
17436;SDS011;70275;52.198;5.422;2023-06-22T06:28:19;41.33;;;36.95;;
17436;SDS011;70275;52.198;5.422;2023-06-22T06:30:48;40.10;;;36.05;;
17436;SDS011;70275;52.198;5.422;2023-06-22T06:33:17;37.28;;;33.42;;
17436;SDS011;70275;52.198;5.422;2023-06-22T06:35:47;40.42;;;36.38;;
17436;SDS011;70275;52.198;5.422;2023-06-22T06:38:18;40.35;;;36.17;;
17436;SDS011;70275;52.198;5.422;2023-06-22T06:40:48;40.55;;;36.15;;
17436;SDS011;70275;52.198;5.422;2023-06-22T06:43:17;41.42;;;37.00;;
17436;SDS011;70275;52.198;5.422;2023-06-22T06:45:46;32.65;;;29.20;;
17436;SDS011;70275;52.198;5.422;2023-06-22T06:48:15;26.08;;;23.30;;
17436;SDS011;70275;52.198;5.422;2023-06-22T06:50:44;31.75;;;28.75;;
17436;SDS011;70275;52.198;5.422;2023-06-22T06:53:13;27.60;;;24.45;;
17436;SDS011;70275;52.198;5.422;2023-06-22T06:55:45;29.80;;;26.73;;
17436;SDS011;70275;52.198;5.422;2023-06-22T06:58:14;27.92;;;25.00;;
17436;SDS011;70275;52.198;5.422;2023-06-22T07:00:43;33.47;;;30.00;;
17436;SDS011;70275;52.198;5.422;2023-06-22T07:03:12;27.90;;;25.15;;
17436;SDS011;70275;52.198;5.422;2023-06-22T07:05:41;28.70;;;25.65;;
17436;SDS011;70275;52.198;5.422;2023-06-22T07:08:10;24.05;;;18.92;;
17436;SDS011;70275;52.198;5.422;2023-06-22T07:10:39;30.35;;;27.15;;
17436;SDS011;70275;52.198;5.422;2023-06-22T07:13:10;17.77;;;15.90;;
17436;SDS011;70275;52.198;5.422;2023-06-22T07:15:39;20.10;;;18.17;;
17436;SDS011;70275;52.198;5.422;2023-06-22T07:18:08;23.67;;;21.27;;
17436;SDS011;70275;52.198;5.422;2023-06-22T07:20:37;22.08;;;19.88;;
17436;SDS011;70275;52.198;5.422;2023-06-22T07:23:07;17.30;;;15.40;;
17436;SDS011;70275;52.198;5.422;2023-06-22T07:25:36;22.45;;;20.30;;
17436;SDS011;70275;52.198;5.422;2023-06-22T07:28:06;23.40;;;21.05;;
17436;SDS011;70275;52.198;5.422;2023-06-22T07:30:39;16.73;;;14.98;;
17436;SDS011;70275;52.198;5.422;2023-06-22T07:33:08;20.23;;;18.10;;
17436;SDS011;70275;52.198;5.422;2023-06-22T07:35:37;15.30;;;13.68;;
17436;SDS011;70275;52.198;5.422;2023-06-22T07:38:06;12.68;;;11.30;;
17436;SDS011;70275;52.198;5.422;2023-06-22T07:40:35;19.27;;;17.35;;
17436;SDS011;70275;52.198;5.422;2023-06-22T07:43:04;13.02;;;11.63;;
17436;SDS011;70275;52.198;5.422;2023-06-22T07:45:33;11.88;;;9.60;;
17436;SDS011;70275;52.198;5.422;2023-06-22T07:48:05;11.18;;;9.73;;
17436;SDS011;70275;52.198;5.422;2023-06-22T07:50:34;15.35;;;13.73;;
17436;SDS011;70275;52.198;5.422;2023-06-22T07:53:03;14.65;;;11.73;;
17436;SDS011;70275;52.198;5.422;2023-06-22T07:55:32;15.55;;;13.18;;
17436;SDS011;70275;52.198;5.422;2023-06-22T07:58:01;15.38;;;13.48;;
17436;SDS011;70275;52.198;5.422;2023-06-22T08:00:30;10.07;;;8.00;;
17436;SDS011;70275;52.198;5.422;2023-06-22T08:02:59;12.82;;;11.48;;
17436;SDS011;70275;52.198;5.422;2023-06-22T08:05:31;12.73;;;11.45;;
17436;SDS011;70275;52.198;5.422;2023-06-22T08:08:00;11.95;;;10.38;;
17436;SDS011;70275;52.198;5.422;2023-06-22T08:10:29;12.77;;;11.48;;
17436;SDS011;70275;52.198;5.422;2023-06-22T08:12:58;14.43;;;13.02;;
17436;SDS011;70275;52.198;5.422;2023-06-22T08:15:27;15.57;;;13.30;;
17436;SDS011;70275;52.198;5.422;2023-06-22T08:17:56;10.60;;;9.55;;
17436;SDS011;70275;52.198;5.422;2023-06-22T08:20:26;9.05;;;7.90;;
17436;SDS011;70275;52.198;5.422;2023-06-22T08:22:57;8.18;;;7.32;;
17436;SDS011;70275;52.198;5.422;2023-06-22T08:25:31;9.35;;;8.38;;
17436;SDS011;70275;52.198;5.422;2023-06-22T08:28:00;12.13;;;10.95;;
17436;SDS011;70275;52.198;5.422;2023-06-22T08:30:29;6.93;;;6.07;;
17436;SDS011;70275;52.198;5.422;2023-06-22T08:32:58;10.18;;;8.60;;
17436;SDS011;70275;52.198;5.422;2023-06-22T08:35:27;11.35;;;9.30;;
17436;SDS011;70275;52.198;5.422;2023-06-22T08:37:59;11.05;;;9.07;;
17436;SDS011;70275;52.198;5.422;2023-06-22T08:40:28;9.98;;;9.07;;
17436;SDS011;70275;52.198;5.422;2023-06-22T08:42:57;11.93;;;9.18;;
17436;SDS011;70275;52.198;5.422;2023-06-22T08:45:26;8.82;;;6.50;;
17436;SDS011;70275;52.198;5.422;2023-06-22T08:47:56;7.90;;;6.90;;
17436;SDS011;70275;52.198;5.422;2023-06-22T08:50:25;5.93;;;5.32;;
17436;SDS011;70275;52.198;5.422;2023-06-22T08:52:54;6.57;;;5.65;;
17436;SDS011;70275;52.198;5.422;2023-06-22T08:55:26;6.18;;;5.28;;
17436;SDS011;70275;52.198;5.422;2023-06-22T08:57:55;8.60;;;5.07;;
17436;SDS011;70275;52.198;5.422;2023-06-22T09:00:24;6.30;;;4.60;;
17436;SDS011;70275;52.198;5.422;2023-06-22T09:02:54;7.43;;;6.43;;
17436;SDS011;70275;52.198;5.422;2023-06-22T09:05:24;6.63;;;6.03;;
17436;SDS011;70275;52.198;5.422;2023-06-22T09:07:53;7.22;;;5.35;;
17436;SDS011;70275;52.198;5.422;2023-06-22T09:10:26;6.43;;;5.82;;
17436;SDS011;70275;52.198;5.422;2023-06-22T09:12:55;6.38;;;5.72;;
17436;SDS011;70275;52.198;5.422;2023-06-22T09:15:25;6.05;;;5.45;;
17436;SDS011;70275;52.198;5.422;2023-06-22T09:17:54;5.40;;;4.80;;
17436;SDS011;70275;52.198;5.422;2023-06-22T09:20:23;6.30;;;4.68;;
17436;SDS011;70275;52.198;5.422;2023-06-22T09:22:52;5.68;;;5.18;;
17436;SDS011;70275;52.198;5.422;2023-06-22T09:25:21;5.45;;;4.72;;
17436;SDS011;70275;52.198;5.422;2023-06-22T09:27:52;8.38;;;5.63;;
17436;SDS011;70275;52.198;5.422;2023-06-22T09:30:21;8.57;;;4.85;;
17436;SDS011;70275;52.198;5.422;2023-06-22T09:32:51;5.45;;;4.97;;
17436;SDS011;70275;52.198;5.422;2023-06-22T09:35:20;5.80;;;4.85;;
17436;SDS011;70275;52.198;5.422;2023-06-22T09:37:51;7.75;;;7.05;;
17436;SDS011;70275;52.198;5.422;2023-06-22T09:40:20;7.90;;;6.13;;
17436;SDS011;70275;52.198;5.422;2023-06-22T09:42:52;4.95;;;3.72;;
17436;SDS011;70275;52.198;5.422;2023-06-22T09:45:21;5.68;;;4.05;;
17436;SDS011;70275;52.198;5.422;2023-06-22T09:47:50;7.97;;;6.13;;
17436;SDS011;70275;52.198;5.422;2023-06-22T09:50:19;14.25;;;8.35;;
17436;SDS011;70275;52.198;5.422;2023-06-22T09:52:49;8.30;;;7.45;;
17436;SDS011;70275;52.198;5.422;2023-06-22T09:55:20;9.77;;;8.88;;
17436;SDS011;70275;52.198;5.422;2023-06-22T09:57:51;7.75;;;6.97;;
17436;SDS011;70275;52.198;5.422;2023-06-22T10:00:20;10.93;;;9.38;;
17436;SDS011;70275;52.198;5.422;2023-06-22T10:02:51;11.20;;;10.00;;
17436;SDS011;70275;52.198;5.422;2023-06-22T10:05:21;11.13;;;9.20;;
17436;SDS011;70275;52.198;5.422;2023-06-22T10:07:50;12.30;;;11.07;;
17436;SDS011;70275;52.198;5.422;2023-06-22T10:10:19;12.90;;;9.80;;
17436;SDS011;70275;52.198;5.422;2023-06-22T10:12:55;8.55;;;7.63;;
17436;SDS011;70275;52.198;5.422;2023-06-22T10:15:30;11.73;;;10.57;;
17436;SDS011;70275;52.198;5.422;2023-06-22T10:17:59;13.77;;;12.25;;
17436;SDS011;70275;52.198;5.422;2023-06-22T10:20:28;8.95;;;7.30;;
17436;SDS011;70275;52.198;5.422;2023-06-22T10:22:57;8.60;;;6.20;;
17436;SDS011;70275;52.198;5.422;2023-06-22T10:25:26;14.52;;;11.95;;
17436;SDS011;70275;52.198;5.422;2023-06-22T10:27:58;16.00;;;11.38;;
17436;SDS011;70275;52.198;5.422;2023-06-22T10:30:27;16.33;;;14.73;;
17436;SDS011;70275;52.198;5.422;2023-06-22T10:32:56;14.38;;;12.98;;
17436;SDS011;70275;52.198;5.422;2023-06-22T10:35:25;14.35;;;12.88;;
17436;SDS011;70275;52.198;5.422;2023-06-22T10:37:54;17.60;;;15.57;;
17436;SDS011;70275;52.198;5.422;2023-06-22T10:40:24;14.95;;;13.45;;
17436;SDS011;70275;52.198;5.422;2023-06-22T10:42:53;8.45;;;7.55;;
17436;SDS011;70275;52.198;5.422;2023-06-22T10:45:25;12.38;;;11.10;;
17436;SDS011;70275;52.198;5.422;2023-06-22T10:47:54;12.95;;;11.60;;
17436;SDS011;70275;52.198;5.422;2023-06-22T10:50:24;14.25;;;12.85;;
17436;SDS011;70275;52.198;5.422;2023-06-22T10:52:54;11.27;;;10.05;;
17436;SDS011;70275;52.198;5.422;2023-06-22T10:55:23;13.90;;;12.50;;
17436;SDS011;70275;52.198;5.422;2023-06-22T10:57:52;13.98;;;12.07;;
17436;SDS011;70275;52.198;5.422;2023-06-22T11:00:21;14.82;;;13.32;;
17436;SDS011;70275;52.198;5.422;2023-06-22T11:02:52;15.63;;;13.95;;
17436;SDS011;70275;52.198;5.422;2023-06-22T11:05:23;11.88;;;10.70;;
17436;SDS011;70275;52.198;5.422;2023-06-22T11:07:52;14.02;;;12.55;;
17436;SDS011;70275;52.198;5.422;2023-06-22T11:10:21;11.75;;;10.63;;
17436;SDS011;70275;52.198;5.422;2023-06-22T11:12:51;8.50;;;7.38;;
17436;SDS011;70275;52.198;5.422;2023-06-22T11:15:20;9.50;;;8.05;;
17436;SDS011;70275;52.198;5.422;2023-06-22T11:17:50;15.10;;;12.98;;
17436;SDS011;70275;52.198;5.422;2023-06-22T11:20:21;14.55;;;13.05;;
17436;SDS011;70275;52.198;5.422;2023-06-22T11:22:50;13.30;;;11.93;;
17436;SDS011;70275;52.198;5.422;2023-06-22T11:25:20;20.75;;;13.88;;
17436;SDS011;70275;52.198;5.422;2023-06-22T11:27:49;14.93;;;13.45;;
17436;SDS011;70275;52.198;5.422;2023-06-22T11:30:19;15.30;;;13.02;;
17436;SDS011;70275;52.198;5.422;2023-06-22T11:32:48;14.73;;;13.18;;
17436;SDS011;70275;52.198;5.422;2023-06-22T11:35:19;14.25;;;12.85;;
17436;SDS011;70275;52.198;5.422;2023-06-22T11:37:48;12.30;;;10.98;;
17436;SDS011;70275;52.198;5.422;2023-06-22T11:40:17;11.13;;;10.02;;
17436;SDS011;70275;52.198;5.422;2023-06-22T11:42:48;13.90;;;12.45;;
17436;SDS011;70275;52.198;5.422;2023-06-22T11:45:17;10.48;;;7.47;;
17436;SDS011;70275;52.198;5.422;2023-06-22T11:47:46;9.15;;;6.82;;
17436;SDS011;70275;52.198;5.422;2023-06-22T11:50:15;15.15;;;13.52;;
17436;SDS011;70275;52.198;5.422;2023-06-22T11:52:47;14.40;;;13.00;;
17436;SDS011;70275;52.198;5.422;2023-06-22T11:55:18;10.75;;;7.40;;
17436;SDS011;70275;52.198;5.422;2023-06-22T11:57:53;11.52;;;10.10;;
17436;SDS011;70275;52.198;5.422;2023-06-22T12:00:25;15.65;;;14.00;;
17436;SDS011;70275;52.198;5.422;2023-06-22T12:02:55;12.55;;;11.35;;
17436;SDS011;70275;52.198;5.422;2023-06-22T12:05:25;15.27;;;13.68;;
17436;SDS011;70275;52.198;5.422;2023-06-22T12:07:56;13.35;;;11.68;;
17436;SDS011;70275;52.198;5.422;2023-06-22T12:10:25;15.27;;;12.27;;
17436;SDS011;70275;52.198;5.422;2023-06-22T12:12:55;13.95;;;11.32;;
17436;SDS011;70275;52.198;5.422;2023-06-22T12:15:25;10.40;;;8.40;;
17436;SDS011;70275;52.198;5.422;2023-06-22T12:17:54;14.32;;;11.48;;
17436;SDS011;70275;52.198;5.422;2023-06-22T12:20:23;11.85;;;10.55;;
17436;SDS011;70275;52.198;5.422;2023-06-22T12:22:55;8.73;;;7.88;;
17436;SDS011;70275;52.198;5.422;2023-06-22T12:25:25;12.55;;;11.30;;
17436;SDS011;70275;52.198;5.422;2023-06-22T12:27:54;10.88;;;9.70;;
17436;SDS011;70275;52.198;5.422;2023-06-22T12:33:35;11.13;;;10.10;;
17436;SDS011;70275;52.198;5.422;2023-06-22T12:36:04;13.15;;;11.10;;
17436;SDS011;70275;52.198;5.422;2023-06-22T12:38:36;12.93;;;11.27;;
17436;SDS011;70275;52.198;5.422;2023-06-22T12:41:05;12.68;;;11.38;;
17436;SDS011;70275;52.198;5.422;2023-06-22T12:43:34;10.73;;;9.45;;
17436;SDS011;70275;52.198;5.422;2023-06-22T12:46:03;12.25;;;10.98;;
17436;SDS011;70275;52.198;5.422;2023-06-22T12:48:32;13.30;;;10.70;;
17436;SDS011;70275;52.198;5.422;2023-06-22T12:51:06;12.00;;;10.20;;
17436;SDS011;70275;52.198;5.422;2023-06-22T12:53:38;13.18;;;11.80;;
17436;SDS011;70275;52.198;5.422;2023-06-22T12:56:08;12.30;;;10.88;;
17436;SDS011;70275;52.198;5.422;2023-06-22T12:58:37;10.75;;;9.65;;
17436;SDS011;70275;52.198;5.422;2023-06-22T13:01:06;13.68;;;10.70;;
17436;SDS011;70275;52.198;5.422;2023-06-22T13:03:35;11.38;;;10.05;;
17436;SDS011;70275;52.198;5.422;2023-06-22T13:06:05;12.65;;;11.35;;
17436;SDS011;70275;52.198;5.422;2023-06-22T13:08:34;12.73;;;11.52;;
17436;SDS011;70275;52.198;5.422;2023-06-22T13:11:05;15.27;;;12.38;;
17436;SDS011;70275;52.198;5.422;2023-06-22T13:13:34;14.30;;;12.80;;
17436;SDS011;70275;52.198;5.422;2023-06-22T13:16:03;16.02;;;13.15;;
17436;SDS011;70275;52.198;5.422;2023-06-22T13:18:32;16.58;;;13.88;;
17436;SDS011;70275;52.198;5.422;2023-06-22T13:21:02;15.40;;;14.00;;
17436;SDS011;70275;52.198;5.422;2023-06-22T13:23:31;15.40;;;13.80;;
17436;SDS011;70275;52.198;5.422;2023-06-22T13:26:00;16.30;;;14.88;;
17436;SDS011;70275;52.198;5.422;2023-06-22T13:28:32;16.65;;;14.10;;
17436;SDS011;70275;52.198;5.422;2023-06-22T13:31:01;16.92;;;15.07;;
17436;SDS011;70275;52.198;5.422;2023-06-22T13:33:30;16.52;;;14.77;;
17436;SDS011;70275;52.198;5.422;2023-06-22T13:35:59;16.77;;;14.70;;
17436;SDS011;70275;52.198;5.422;2023-06-22T13:38:28;17.88;;;16.25;;
17436;SDS011;70275;52.198;5.422;2023-06-22T13:40:58;17.20;;;15.60;;
17436;SDS011;70275;52.198;5.422;2023-06-22T13:43:27;16.70;;;15.10;;
17436;SDS011;70275;52.198;5.422;2023-06-22T13:45:59;17.75;;;15.95;;
17436;SDS011;70275;52.198;5.422;2023-06-22T13:48:28;20.40;;;18.45;;
17436;SDS011;70275;52.198;5.422;2023-06-22T13:50:57;19.33;;;17.33;;
17436;SDS011;70275;52.198;5.422;2023-06-22T13:53:26;19.95;;;17.95;;
17436;SDS011;70275;52.198;5.422;2023-06-22T13:55:55;18.55;;;16.65;;
17436;SDS011;70275;52.198;5.422;2023-06-22T13:58:24;20.38;;;18.27;;
17436;SDS011;70275;52.198;5.422;2023-06-22T14:00:53;19.08;;;17.27;;
17436;SDS011;70275;52.198;5.422;2023-06-22T14:03:25;20.23;;;18.33;;
17436;SDS011;70275;52.198;5.422;2023-06-22T14:05:54;21.45;;;18.98;;
17436;SDS011;70275;52.198;5.422;2023-06-22T14:08:23;23.90;;;21.70;;
17436;SDS011;70275;52.198;5.422;2023-06-22T14:10:52;23.25;;;20.98;;
17436;SDS011;70275;52.198;5.422;2023-06-22T14:13:21;20.63;;;18.58;;
17436;SDS011;70275;52.198;5.422;2023-06-22T14:15:50;23.17;;;20.98;;
17436;SDS011;70275;52.198;5.422;2023-06-22T14:18:19;22.20;;;19.90;;
17436;SDS011;70275;52.198;5.422;2023-06-22T14:20:51;21.90;;;19.85;;
17436;SDS011;70275;52.198;5.422;2023-06-22T14:23:20;20.98;;;19.05;;
17436;SDS011;70275;52.198;5.422;2023-06-22T14:25:49;24.65;;;22.38;;
17436;SDS011;70275;52.198;5.422;2023-06-22T14:28:18;21.77;;;19.77;;
17436;SDS011;70275;52.198;5.422;2023-06-22T14:30:47;21.02;;;18.88;;
17436;SDS011;70275;52.198;5.422;2023-06-22T14:33:16;23.80;;;21.30;;
17436;SDS011;70275;52.198;5.422;2023-06-22T14:35:46;25.42;;;23.00;;
17436;SDS011;70275;52.198;5.422;2023-06-22T14:38:17;22.52;;;20.45;;
17436;SDS011;70275;52.198;5.422;2023-06-22T14:40:46;25.90;;;23.60;;
17436;SDS011;70275;52.198;5.422;2023-06-22T14:43:15;24.10;;;22.02;;
17436;SDS011;70275;52.198;5.422;2023-06-22T14:45:44;21.83;;;19.73;;